Terminal Aerodrome Forecast
Issued by NWS Cleveland, OH

Home | Current Version | Previous Version | Text Only | Print | Product List | Glossary Off
Versions: 1 2 3 4 5 6 7 8 9 10 11 12 13 14 15 16 17 18

035
FTUS41 KCLE 151255 AAA
TAFCAK
TAF AMD
KCAK 151255Z 1513/1612 22004KT P6SM SCT250
     FM151800 27006KT P6SM BKN050
     FM152300 30006KT P6SM BKN250
     FM160600 VRB03KT P6SM SCT150=

USA.gov is the U.S. government's official web portal to all federal, state and local government web resources and services.